sensor_id;sensor_type;location;lat;lon;timestamp;pressure;altitude;pressure_sealevel;temperature;humidity
53689;BME280;39583;54.682;30.662;2022-09-12T07:15:26;98997.44;;;11.28;100.00
53689;BME280;39583;54.682;30.662;2022-09-12T07:17:53;98996.22;;;11.59;100.00
53689;BME280;39583;54.682;30.662;2022-09-12T07:20:19;98998.19;;;11.75;99.19
53689;BME280;39583;54.682;30.662;2022-09-12T07:22:45;98998.06;;;11.81;97.89
53689;BME280;39583;54.682;30.662;2022-09-12T07:25:11;98998.84;;;11.94;97.23
53689;BME280;39583;54.682;30.662;2022-09-12T07:27:37;99002.91;;;12.08;96.48
53689;BME280;39583;54.682;30.662;2022-09-12T07:30:05;99011.56;;;12.10;95.68
53689;BME280;39583;54.682;30.662;2022-09-12T07:32:32;99009.53;;;12.00;94.69
53689;BME280;39583;54.682;30.662;2022-09-12T07:34:59;99015.16;;;11.99;94.45
53689;BME280;39583;54.682;30.662;2022-09-12T07:37:25;99010.91;;;12.03;94.14
53689;BME280;39583;54.682;30.662;2022-09-12T07:39:51;99016.06;;;12.04;94.07
53689;BME280;39583;54.682;30.662;2022-09-12T07:42:17;99016.41;;;12.08;94.11
53689;BME280;39583;54.682;30.662;2022-09-12T07:44:43;99013.69;;;12.08;93.24
53689;BME280;39583;54.682;30.662;2022-09-12T07:47:10;99013.31;;;12.16;93.38
53689;BME280;39583;54.682;30.662;2022-09-12T07:49:36;99016.03;;;12.16;93.00
53689;BME280;39583;54.682;30.662;2022-09-12T07:52:02;99013.81;;;12.13;92.29
53689;BME280;39583;54.682;30.662;2022-09-12T07:54:29;99007.94;;;12.16;92.84
53689;BME280;39583;54.682;30.662;2022-09-12T07:56:56;99012.47;;;12.27;92.74
53689;BME280;39583;54.682;30.662;2022-09-12T07:59:22;99011.66;;;12.27;92.10
53689;BME280;39583;54.682;30.662;2022-09-12T08:01:49;99009.03;;;12.32;92.36
53689;BME280;39583;54.682;30.662;2022-09-12T08:04:15;99011.44;;;12.45;92.62
53689;BME280;39583;54.682;30.662;2022-09-12T08:06:41;99011.38;;;12.57;92.28
53689;BME280;39583;54.682;30.662;2022-09-12T08:09:07;99010.06;;;12.59;91.97
53689;BME280;39583;54.682;30.662;2022-09-12T08:11:34;99009.50;;;12.74;91.92
53689;BME280;39583;54.682;30.662;2022-09-12T08:14:00;99012.19;;;12.74;91.66
53689;BME280;39583;54.682;30.662;2022-09-12T08:16:31;99004.75;;;12.81;91.74
53689;BME280;39583;54.682;30.662;2022-09-12T08:18:59;99013.94;;;12.80;91.34
53689;BME280;39583;54.682;30.662;2022-09-12T08:21:28;99013.19;;;12.68;90.62
53689;BME280;39583;54.682;30.662;2022-09-12T08:24:00;99014.16;;;12.62;90.53
53689;BME280;39583;54.682;30.662;2022-09-12T08:26:27;99019.09;;;12.65;90.59
53689;BME280;39583;54.682;30.662;2022-09-12T08:28:54;99019.53;;;12.62;90.40
53689;BME280;39583;54.682;30.662;2022-09-12T08:31:23;99015.13;;;12.56;90.20
53689;BME280;39583;54.682;30.662;2022-09-12T08:33:50;99018.78;;;12.50;90.24
53689;BME280;39583;54.682;30.662;2022-09-12T08:36:17;99018.78;;;12.50;90.37
53689;BME280;39583;54.682;30.662;2022-09-12T08:38:49;99022.91;;;12.52;90.42
53689;BME280;39583;54.682;30.662;2022-09-12T08:49:13;99032.28;;;12.78;89.48
53689;BME280;39583;54.682;30.662;2022-09-12T08:51:40;99031.59;;;12.88;89.38
53689;BME280;39583;54.682;30.662;2022-09-12T08:54:22;99043.16;;;13.00;89.37
53689;BME280;39583;54.682;30.662;2022-09-12T08:56:50;99039.00;;;12.92;88.53
53689;BME280;39583;54.682;30.662;2022-09-12T08:59:18;99034.97;;;12.78;88.36
53689;BME280;39583;54.682;30.662;2022-09-12T09:01:46;99036.75;;;12.73;88.23
53689;BME280;39583;54.682;30.662;2022-09-12T09:04:49;99034.88;;;12.73;88.72
53689;BME280;39583;54.682;30.662;2022-09-12T09:07:37;99030.84;;;12.59;87.97
53689;BME280;39583;54.682;30.662;2022-09-12T11:18:42;99053.34;;;14.53;81.78
53689;BME280;39583;54.682;30.662;2022-09-12T11:21:22;99057.25;;;14.62;81.42
53689;BME280;39583;54.682;30.662;2022-09-12T11:37:21;99057.81;;;14.64;78.75
53689;BME280;39583;54.682;30.662;2022-09-12T11:39:51;99054.31;;;14.68;78.53
53689;BME280;39583;54.682;30.662;2022-09-12T11:42:24;99054.47;;;14.57;77.14
53689;BME280;39583;54.682;30.662;2022-09-12T11:45:34;99060.66;;;14.30;76.74
53689;BME280;39583;54.682;30.662;2022-09-12T11:48:06;99056.31;;;14.29;77.35
53689;BME280;39583;54.682;30.662;2022-09-12T11:50:36;99058.41;;;14.44;78.01
53689;BME280;39583;54.682;30.662;2022-09-12T11:53:10;99052.91;;;14.61;77.52
53689;BME280;39583;54.682;30.662;2022-09-12T11:55:53;99051.28;;;14.60;77.12
53689;BME280;39583;54.682;30.662;2022-09-12T11:58:25;99063.22;;;14.64;76.67
53689;BME280;39583;54.682;30.662;2022-09-12T12:01:10;99054.28;;;14.63;76.39
53689;BME280;39583;54.682;30.662;2022-09-12T12:03:45;99054.72;;;14.55;76.53
53689;BME280;39583;54.682;30.662;2022-09-12T12:06:42;99054.03;;;14.43;76.96
53689;BME280;39583;54.682;30.662;2022-09-12T12:09:04;99052.44;;;14.20;76.55
53689;BME280;39583;54.682;30.662;2022-09-12T12:11:37;99062.50;;;14.03;76.18
53689;BME280;39583;54.682;30.662;2022-09-12T12:16:39;99049.03;;;13.86;77.03
53689;BME280;39583;54.682;30.662;2022-09-12T12:19:33;99060.25;;;13.95;76.16
53689;BME280;39583;54.682;30.662;2022-09-12T12:22:13;98941.25;;;13.17;76.32
53689;BME280;39583;54.682;30.662;2022-09-12T12:27:46;99027.91;;;13.83;76.09
53689;BME280;39583;54.682;30.662;2022-09-12T12:38:44;99069.03;;;14.29;76.70
53689;BME280;39583;54.682;30.662;2022-09-12T12:43:53;99069.56;;;14.48;76.28
53689;BME280;39583;54.682;30.662;2022-09-12T12:46:25;99068.25;;;14.50;76.37
53689;BME280;39583;54.682;30.662;2022-09-12T12:51:42;99075.03;;;14.53;75.72
53689;BME280;39583;54.682;30.662;2022-09-12T12:57:17;99073.34;;;14.47;75.32
53689;BME280;39583;54.682;30.662;2022-09-12T12:59:54;99074.44;;;14.45;75.29
53689;BME280;39583;54.682;30.662;2022-09-12T13:02:51;99075.81;;;14.48;75.30
53689;BME280;39583;54.682;30.662;2022-09-12T13:05:22;99079.34;;;14.49;74.76
53689;BME280;39583;54.682;30.662;2022-09-12T13:07:56;99072.94;;;14.38;74.15
53689;BME280;39583;54.682;30.662;2022-09-12T13:10:26;99075.84;;;14.31;74.63
53689;BME280;39583;54.682;30.662;2022-09-12T13:12:59;99076.91;;;14.30;75.16
53689;BME280;39583;54.682;30.662;2022-09-12T13:18:09;99079.47;;;14.42;75.22
53689;BME280;39583;54.682;30.662;2022-09-12T13:20:46;99079.38;;;14.32;74.37
53689;BME280;39583;54.682;30.662;2022-09-12T13:23:28;99087.66;;;14.20;74.93
53689;BME280;39583;54.682;30.662;2022-09-12T13:25:59;99087.66;;;14.20;75.13
53689;BME280;39583;54.682;30.662;2022-09-12T13:28:28;99078.72;;;14.20;75.37
53689;BME280;39583;54.682;30.662;2022-09-12T13:31:09;99077.69;;;14.26;75.45
53689;BME280;39583;54.682;30.662;2022-09-12T13:43:45;99084.56;;;14.33;75.25
53689;BME280;39583;54.682;30.662;2022-09-12T13:46:17;99092.41;;;14.35;75.36
53689;BME280;39583;54.682;30.662;2022-09-12T13:48:46;99093.41;;;14.29;74.82
53689;BME280;39583;54.682;30.662;2022-09-12T13:51:28;99089.31;;;14.26;75.14
53689;BME280;39583;54.682;30.662;2022-09-12T13:53:58;99099.03;;;14.22;74.98
53689;BME280;39583;54.682;30.662;2022-09-12T13:56:27;99092.81;;;14.22;75.00
53689;BME280;39583;54.682;30.662;2022-09-12T13:58:58;99091.41;;;14.19;75.11
53689;BME280;39583;54.682;30.662;2022-09-12T14:01:45;99076.38;;;14.06;74.83
53689;BME280;39583;54.682;30.662;2022-09-12T14:04:21;99098.97;;;14.17;75.25
53689;BME280;39583;54.682;30.662;2022-09-12T14:07:23;99094.19;;;14.24;75.40
53689;BME280;39583;54.682;30.662;2022-09-12T14:09:55;99086.19;;;14.34;75.28
53689;BME280;39583;54.682;30.662;2022-09-12T14:12:30;99076.81;;;14.20;74.81
53689;BME280;39583;54.682;30.662;2022-09-12T14:14:58;99092.84;;;14.27;74.85
53689;BME280;39583;54.682;30.662;2022-09-12T14:17:35;99088.47;;;14.21;75.06
53689;BME280;39583;54.682;30.662;2022-09-12T14:20:13;99104.88;;;14.14;75.37
53689;BME280;39583;54.682;30.662;2022-09-12T14:22:41;99090.59;;;13.97;75.23
53689;BME280;39583;54.682;30.662;2022-09-12T14:25:17;99103.06;;;13.98;75.31
53689;BME280;39583;54.682;30.662;2022-09-12T14:27:51;99099.69;;;13.91;75.74
53689;BME280;39583;54.682;30.662;2022-09-12T14:35:36;99100.50;;;13.91;76.03
53689;BME280;39583;54.682;30.662;2022-09-12T14:40:48;99104.50;;;13.83;76.12
53689;BME280;39583;54.682;30.662;2022-09-12T14:43:37;99102.28;;;13.80;75.89
53689;BME280;39583;54.682;30.662;2022-09-12T14:46:17;99106.78;;;13.75;75.92
53689;BME280;39583;54.682;30.662;2022-09-12T14:48:49;99105.41;;;13.72;76.06
53689;BME280;39583;54.682;30.662;2022-09-12T14:51:30;99102.97;;;13.71;76.11
53689;BME280;39583;54.682;30.662;2022-09-12T14:53:57;99107.03;;;13.73;76.48
53689;BME280;39583;54.682;30.662;2022-09-12T14:56:52;99113.53;;;13.72;76.58
53689;BME280;39583;54.682;30.662;2022-09-12T14:59:39;99111.91;;;13.71;76.84
53689;BME280;39583;54.682;30.662;2022-09-12T15:02:20;99117.56;;;13.70;76.71
53689;BME280;39583;54.682;30.662;2022-09-12T15:07:38;99120.16;;;13.65;76.85
53689;BME280;39583;54.682;30.662;2022-09-12T15:10:35;99126.41;;;13.65;76.87
53689;BME280;39583;54.682;30.662;2022-09-12T15:15:31;99123.88;;;13.58;77.08
53689;BME280;39583;54.682;30.662;2022-09-12T15:17:57;99125.50;;;13.60;77.49
53689;BME280;39583;54.682;30.662;2022-09-12T15:20:23;99122.50;;;13.56;77.37
53689;BME280;39583;54.682;30.662;2022-09-12T15:22:51;99122.75;;;13.54;77.45
53689;BME280;39583;54.682;30.662;2022-09-12T15:25:18;99126.75;;;13.52;77.64
53689;BME280;39583;54.682;30.662;2022-09-12T15:27:45;99120.75;;;13.50;77.75
53689;BME280;39583;54.682;30.662;2022-09-12T15:30:12;99131.00;;;13.48;77.87
53689;BME280;39583;54.682;30.662;2022-09-12T15:32:39;99130.44;;;13.46;77.94
53689;BME280;39583;54.682;30.662;2022-09-12T15:35:21;99138.81;;;13.44;78.08
53689;BME280;39583;54.682;30.662;2022-09-12T15:37:49;99109.63;;;13.30;78.03
53689;BME280;39583;54.682;30.662;2022-09-12T15:40:15;99133.78;;;13.36;78.32
53689;BME280;39583;54.682;30.662;2022-09-12T15:42:42;99142.91;;;13.30;78.40
53689;BME280;39583;54.682;30.662;2022-09-12T15:45:14;99145.50;;;13.25;78.70
53689;BME280;39583;54.682;30.662;2022-09-12T15:47:42;99149.78;;;13.21;78.96
53689;BME280;39583;54.682;30.662;2022-09-12T15:50:09;99131.78;;;13.15;79.12
53689;BME280;39583;54.682;30.662;2022-09-12T15:52:36;99132.53;;;13.10;79.23
53689;BME280;39583;54.682;30.662;2022-09-12T15:55:04;99134.31;;;13.05;79.47
53689;BME280;39583;54.682;30.662;2022-09-12T15:57:30;99131.50;;;12.99;79.66
53689;BME280;39583;54.682;30.662;2022-09-12T15:59:57;99132.25;;;12.95;79.89
53689;BME280;39583;54.682;30.662;2022-09-12T16:02:23;99140.03;;;12.91;80.14
53689;BME280;39583;54.682;30.662;2022-09-12T16:04:49;99138.88;;;12.87;80.14
53689;BME280;39583;54.682;30.662;2022-09-12T16:07:19;99138.28;;;12.85;80.25
53689;BME280;39583;54.682;30.662;2022-09-12T16:09:46;99144.19;;;12.82;80.54
53689;BME280;39583;54.682;30.662;2022-09-12T16:12:12;99144.91;;;12.78;80.49
53689;BME280;39583;54.682;30.662;2022-09-12T16:14:38;99148.09;;;12.75;80.60
53689;BME280;39583;54.682;30.662;2022-09-12T16:17:04;99145.88;;;12.72;80.75
53689;BME280;39583;54.682;30.662;2022-09-12T16:19:30;99146.34;;;12.68;80.86
53689;BME280;39583;54.682;30.662;2022-09-12T16:21:57;99150.63;;;12.64;81.09
53689;BME280;39583;54.682;30.662;2022-09-12T16:24:23;99144.03;;;12.60;81.24
53689;BME280;39583;54.682;30.662;2022-09-12T16:26:49;99146.88;;;12.54;81.30
53689;BME280;39583;54.682;30.662;2022-09-12T16:29:15;99144.88;;;12.49;81.59
53689;BME280;39583;54.682;30.662;2022-09-12T16:31:41;99136.25;;;12.35;81.63
53689;BME280;39583;54.682;30.662;2022-09-12T16:34:09;99156.56;;;12.38;81.67
53689;BME280;39583;54.682;30.662;2022-09-12T16:36:36;99154.56;;;12.33;82.00
53689;BME280;39583;54.682;30.662;2022-09-12T16:39:02;99157.16;;;12.28;81.90
53689;BME280;39583;54.682;30.662;2022-09-12T16:41:28;99164.13;;;12.24;82.29
53689;BME280;39583;54.682;30.662;2022-09-12T16:43:55;99164.56;;;12.21;82.22
53689;BME280;39583;54.682;30.662;2022-09-12T16:46:24;99166.09;;;12.17;82.31
53689;BME280;39583;54.682;30.662;2022-09-12T16:48:53;99169.53;;;12.13;82.34
53689;BME280;39583;54.682;30.662;2022-09-12T16:51:22;99175.38;;;12.09;82.69
53689;BME280;39583;54.682;30.662;2022-09-12T16:53:49;99153.22;;;11.96;82.64
53689;BME280;39583;54.682;30.662;2022-09-12T16:56:15;99172.81;;;12.03;82.73
53689;BME280;39583;54.682;30.662;2022-09-12T16:58:42;99178.44;;;12.01;83.02
53689;BME280;39583;54.682;30.662;2022-09-12T17:01:11;99171.88;;;11.97;82.99
53689;BME280;39583;54.682;30.662;2022-09-12T17:03:38;99177.97;;;11.93;83.42
53689;BME280;39583;54.682;30.662;2022-09-12T17:08:42;99167.53;;;11.85;83.52
53689;BME280;39583;54.682;30.662;2022-09-12T17:11:16;99167.44;;;11.79;83.61
53689;BME280;39583;54.682;30.662;2022-09-12T17:13:49;99170.56;;;11.76;83.77
53689;BME280;39583;54.682;30.662;2022-09-12T17:16:16;99166.47;;;11.74;83.98
53689;BME280;39583;54.682;30.662;2022-09-12T17:18:44;99171.03;;;11.73;84.06
53689;BME280;39583;54.682;30.662;2022-09-12T17:21:11;99176.44;;;11.73;84.15
53689;BME280;39583;54.682;30.662;2022-09-12T17:23:38;99179.13;;;11.73;84.22
53689;BME280;39583;54.682;30.662;2022-09-12T17:26:07;99171.63;;;11.75;84.38
53689;BME280;39583;54.682;30.662;2022-09-12T17:28:35;99175.97;;;11.76;84.58
53689;BME280;39583;54.682;30.662;2022-09-12T17:31:04;99177.41;;;11.79;84.51
53689;BME280;39583;54.682;30.662;2022-09-12T17:33:32;99177.16;;;11.80;84.66
53689;BME280;39583;54.682;30.662;2022-09-12T17:36:00;99181.25;;;11.83;84.61
53689;BME280;39583;54.682;30.662;2022-09-12T17:38:30;99172.09;;;11.84;84.67
53689;BME280;39583;54.682;30.662;2022-09-12T17:41:05;99172.94;;;11.85;84.97
53689;BME280;39583;54.682;30.662;2022-09-12T17:43:32;99173.78;;;11.85;84.74
53689;BME280;39583;54.682;30.662;2022-09-12T17:46:01;99174.81;;;11.84;84.81
53689;BME280;39583;54.682;30.662;2022-09-12T17:48:28;99167.78;;;11.83;84.70
53689;BME280;39583;54.682;30.662;2022-09-12T17:50:54;99170.22;;;11.85;85.06
53689;BME280;39583;54.682;30.662;2022-09-12T17:53:21;99153.81;;;11.74;85.00
53689;BME280;39583;54.682;30.662;2022-09-12T17:55:48;99172.34;;;11.82;85.09
53689;BME280;39583;54.682;30.662;2022-09-12T17:58:16;99183.13;;;11.82;85.04
53689;BME280;39583;54.682;30.662;2022-09-12T18:00:42;99170.94;;;11.80;85.22
53689;BME280;39583;54.682;30.662;2022-09-12T18:03:27;99177.97;;;11.81;85.52
53689;BME280;39583;54.682;30.662;2022-09-12T18:05:55;99166.22;;;11.75;85.45
53689;BME280;39583;54.682;30.662;2022-09-12T18:08:23;99180.09;;;11.79;85.71
53689;BME280;39583;54.682;30.662;2022-09-12T18:10:50;99178.66;;;11.76;85.46
53689;BME280;39583;54.682;30.662;2022-09-12T18:13:20;99183.63;;;11.79;85.68
53689;BME280;39583;54.682;30.662;2022-09-12T18:15:50;99184.44;;;11.80;85.96
53689;BME280;39583;54.682;30.662;2022-09-12T18:18:16;99188.53;;;11.82;85.80
53689;BME280;39583;54.682;30.662;2022-09-12T18:20:52;99188.53;;;11.82;85.72
53689;BME280;39583;54.682;30.662;2022-09-12T18:23:19;99181.25;;;11.83;85.95
53689;BME280;39583;54.682;30.662;2022-09-12T18:25:48;99183.94;;;11.83;86.03
53689;BME280;39583;54.682;30.662;2022-09-12T18:28:15;99183.94;;;11.83;86.06
53689;BME280;39583;54.682;30.662;2022-09-12T18:30:41;99178.78;;;11.81;85.98
53689;BME280;39583;54.682;30.662;2022-09-12T18:33:09;99179.84;;;11.80;86.13
53689;BME280;39583;54.682;30.662;2022-09-12T18:35:37;99162.34;;;11.71;86.12
53689;BME280;39583;54.682;30.662;2022-09-12T18:38:03;99174.69;;;11.79;86.29
